Time;durP1;ratioP1;P1;durP2;ratioP2;P2;SDS_P1;SDS_P2;PMS_P1;PMS_P2;Temp;Humidity;BMP_temperature;BMP_pressure;BME280_temperature;BME280_humidity;BME280_pressure;Samples;Min_cycle;Max_cycle;Signal;HPM_P1;HPM_P2
2021/09/08 00:02:22;;;;;;;;;;;;;;;27.28;36.97;101713.84;4960734;29;737;-39
2021/09/08 00:04:47;;;;;;;;;;;;;;;27.21;36.96;101705.53;4960265;29;780;-39
2021/09/08 00:07:12;;;;;;;;;;;;;;;27.26;36.77;101707.75;4960681;29;753;-39
2021/09/08 00:09:38;;;;;;;;;;;;;;;27.37;36.44;101710.19;4960632;29;816;-39
2021/09/08 00:12:03;;;;;;;;;;;;;;;27.35;36.72;101712.19;4960450;29;765;-38
2021/09/08 00:14:28;;;;;;;;;;;;;;;27.29;36.75;101706.59;4959955;29;1959;-38
2021/09/08 00:16:54;;;;;;;;;;;;;;;27.22;36.80;101709.94;4960030;29;1059;-39
2021/09/08 00:19:19;;;;;;;;;;;;;;;27.33;36.64;101713.34;4960097;29;741;-39
2021/09/08 00:21:44;;;;;;;;;;;;;;;27.31;36.47;101715.41;4960039;28;1780;-40
2021/09/08 00:24:10;;;;;;;;;;;;;;;27.30;36.55;101709.13;4960257;29;950;-39
2021/09/08 00:26:35;;;;;;;;;;;;;;;27.35;36.47;101706.81;4959815;29;555;-39
2021/09/08 00:29:00;;;;;;;;;;;;;;;27.29;36.85;101698.50;4959662;29;1009;-39
2021/09/08 00:31:26;;;;;;;;;;;;;;;27.39;36.52;101704.63;4960226;28;826;-39
2021/09/08 00:33:51;;;;;;;;;;;;;;;27.25;36.81;101703.38;4959829;29;1930;-38
2021/09/08 00:36:16;;;;;;;;;;;;;;;27.29;36.57;101704.75;4960087;28;757;-38
2021/09/08 00:38:42;;;;;;;;;;;;;;;27.29;36.19;101693.94;4959923;28;726;-39
2021/09/08 00:41:07;;;;;;;;;;;;;;;27.20;36.90;101701.16;4958626;28;1015;-39
2021/09/08 00:43:32;;;;;;;;;;;;;;;27.30;36.43;101694.78;4959667;28;982;-38
2021/09/08 00:45:58;;;;;;;;;;;;;;;27.34;36.32;101685.34;4959875;28;727;-38
2021/09/08 00:48:23;;;;;;;;;;;;;;;27.25;36.29;101679.06;4959372;29;928;-39
2021/09/08 00:50:49;;;;;;;;;;;;;;;27.22;36.59;101680.25;4959859;29;737;-39
2021/09/08 00:53:17;;;;;;;;;;;;;;;27.24;36.34;101680.06;4959713;29;1949;-39
2021/09/08 00:55:43;;;;;;;;;;;;;;;27.29;36.38;101675.03;4959240;29;745;-39
2021/09/08 00:58:08;;;;;;;;;;;;;;;27.31;35.85;101672.16;4959988;29;829;-39
2021/09/08 01:00:34;;;;;;;;;;;;;;;27.25;36.44;101671.81;4959107;28;986;-39
2021/09/08 01:02:59;;;;;;;;;;;;;;;27.24;36.33;101674.66;4959517;29;785;-39
2021/09/08 01:05:26;;;;;;;;;;;;;;;27.30;36.05;101671.31;4959152;29;555;-39
2021/09/08 01:07:51;;;;;;;;;;;;;;;27.26;35.90;101675.34;4959360;29;828;-39
2021/09/08 01:10:16;;;;;;;;;;;;;;;27.21;36.46;101669.59;4941851;29;872;-39
2021/09/08 01:12:42;;;;;;;;;;;;;;;27.22;36.22;101672.13;4959254;29;1906;-39
2021/09/08 01:15:07;;;;;;;;;;;;;;;27.25;36.10;101673.66;4959194;29;1014;-39
2021/09/08 01:17:32;;;;;;;;;;;;;;;27.23;35.96;101671.13;4959489;29;1067;-39
2021/09/08 01:19:58;;;;;;;;;;;;;;;27.20;36.36;101668.75;4958764;28;998;-39
2021/09/08 01:22:26;;;;;;;;;;;;;;;27.22;36.21;101663.16;4959134;29;1648;-39
2021/09/08 01:24:51;;;;;;;;;;;;;;;27.25;36.04;101663.69;4941915;29;817;-39
2021/09/08 01:27:16;;;;;;;;;;;;;;;27.21;36.19;101669.59;4958767;29;757;-39
2021/09/08 01:29:42;;;;;;;;;;;;;;;27.24;35.81;101661.16;4958712;29;1006;-39
2021/09/08 01:32:07;;;;;;;;;;;;;;;27.23;35.86;101663.00;4959107;29;793;-39
2021/09/08 01:34:32;;;;;;;;;;;;;;;27.23;35.64;101651.34;4957707;28;1906;-39
2021/09/08 01:36:57;;;;;;;;;;;;;;;27.30;35.42;101651.56;4959023;29;944;-39
2021/09/08 01:39:23;;;;;;;;;;;;;;;27.24;35.78;101650.38;4958803;29;805;-39
2021/09/08 01:41:49;;;;;;;;;;;;;;;27.18;36.04;101642.88;4958968;29;811;-39
2021/09/08 01:44:18;;;;;;;;;;;;;;;27.22;35.94;101649.66;4958890;29;958;-39
2021/09/08 01:46:44;;;;;;;;;;;;;;;27.21;35.80;101640.72;4958429;29;752;-38
2021/09/08 01:49:09;;;;;;;;;;;;;;;27.22;35.87;101644.25;4958636;29;805;-39
2021/09/08 01:51:34;;;;;;;;;;;;;;;27.22;35.81;101653.22;4958659;28;767;-39
2021/09/08 01:53:59;;;;;;;;;;;;;;;27.14;36.07;101654.00;4958569;29;1960;-39
2021/09/08 01:56:25;;;;;;;;;;;;;;;27.20;35.83;101657.94;4958754;29;792;-38
2021/09/08 01:58:50;;;;;;;;;;;;;;;27.21;35.68;101656.91;4958308;29;1005;-38
2021/09/08 02:01:15;;;;;;;;;;;;;;;27.18;35.62;101656.38;4958410;29;769;-38
2021/09/08 02:03:41;;;;;;;;;;;;;;;27.17;35.69;101649.31;4958367;29;820;-39
2021/09/08 02:06:16;;;;;;;;;;;;;;;27.21;35.76;101648.00;4958226;29;836;-39
2021/09/08 02:08:41;;;;;;;;;;;;;;;27.18;35.28;101643.75;4958476;29;745;-38
2021/09/08 02:11:06;;;;;;;;;;;;;;;27.23;35.66;101643.25;4958115;29;828;-38
2021/09/08 02:13:32;;;;;;;;;;;;;;;27.17;35.54;101642.06;4958038;29;1923;-38
2021/09/08 02:15:57;;;;;;;;;;;;;;;27.20;35.38;101641.72;4958076;29;884;-38
2021/09/08 02:18:22;;;;;;;;;;;;;;;27.20;35.67;101644.44;4958386;29;1339;-38
2021/09/08 02:20:47;;;;;;;;;;;;;;;27.20;35.13;101633.63;4958307;29;1613;-39
2021/09/08 02:23:13;;;;;;;;;;;;;;;27.10;35.72;101631.06;4958387;29;824;-39
2021/09/08 02:25:38;;;;;;;;;;;;;;;27.18;35.48;101629.38;4957887;29;796;-39
2021/09/08 02:28:03;;;;;;;;;;;;;;;27.15;35.54;101633.25;4958564;29;856;-38
2021/09/08 02:30:29;;;;;;;;;;;;;;;27.13;35.42;101628.03;4957838;29;998;-38
2021/09/08 02:32:54;;;;;;;;;;;;;;;27.13;35.47;101624.47;4957932;29;1981;-38
2021/09/08 02:35:19;;;;;;;;;;;;;;;27.15;35.41;101622.47;4957685;28;903;-38
2021/09/08 02:37:45;;;;;;;;;;;;;;;27.14;35.19;101624.31;4957891;29;733;-39
2021/09/08 02:40:10;;;;;;;;;;;;;;;27.14;35.41;101626.19;4958159;29;801;-38
2021/09/08 02:42:35;;;;;;;;;;;;;;;27.18;35.35;101629.38;4958236;29;718;-38
2021/09/08 02:45:01;;;;;;;;;;;;;;;27.20;34.99;101622.81;4957760;29;1013;-38
2021/09/08 02:47:26;;;;;;;;;;;;;;;27.15;35.12;101630.56;4957766;29;789;-38
2021/09/08 02:49:52;;;;;;;;;;;;;;;27.12;35.61;101628.19;4957866;29;895;-39
2021/09/08 02:52:17;;;;;;;;;;;;;;;27.16;35.12;101626.00;4957648;28;792;-38
2021/09/08 02:54:42;;;;;;;;;;;;;;;27.08;35.68;101624.97;4957793;29;1903;-39
2021/09/08 02:57:08;;;;;;;;;;;;;;;27.11;35.44;101615.69;4958007;29;793;-39
2021/09/08 02:59:33;;;;;;;;;;;;;;;27.14;35.36;101620.78;4957734;28;954;-39
2021/09/08 03:01:58;;;;;;;;;;;;;;;27.09;34.58;101620.41;4957641;29;774;-43
2021/09/08 03:04:24;;;;;;;;;;;;;;;26.07;32.58;101625.22;4957553;29;769;-43
2021/09/08 03:06:49;;;;;;;;;;;;;;;25.99;32.98;101622.47;4957868;28;781;-43
2021/09/08 03:09:15;;;;;;;;;;;;;;;25.61;33.85;101622.56;4957662;28;847;-43
2021/09/08 03:11:40;;;;;;;;;;;;;;;25.17;33.60;101619.50;4957570;29;789;-41
2021/09/08 03:14:06;;;;;;;;;;;;;;;24.80;33.45;101623.00;4957348;28;1957;-41
2021/09/08 03:16:31;;;;;;;;;;;;;;;25.64;33.04;101620.41;4957118;29;579;-42
2021/09/08 03:18:56;;;;;;;;;;;;;;;25.82;31.40;101625.00;4957702;29;1110;-41
2021/09/08 03:21:21;;;;;;;;;;;;;;;25.59;30.81;101617.28;4957580;29;1589;-40
2021/09/08 03:23:47;;;;;;;;;;;;;;;25.48;31.07;101622.88;4957097;29;769;-40
2021/09/08 03:26:12;;;;;;;;;;;;;;;25.45;30.99;101621.34;4957609;29;766;-40
2021/09/08 03:28:37;;;;;;;;;;;;;;;25.28;31.05;101615.78;4957332;29;950;-40
2021/09/08 03:31:03;;;;;;;;;;;;;;;25.15;31.52;101615.28;4956993;29;1250;-38
2021/09/08 03:33:28;;;;;;;;;;;;;;;25.21;31.41;101619.22;4957326;28;1966;-41
2021/09/08 03:35:53;;;;;;;;;;;;;;;24.94;31.62;101616.34;4957547;29;808;-40
2021/09/08 03:38:18;;;;;;;;;;;;;;;24.72;32.11;101617.50;4957446;29;840;-41
2021/09/08 03:40:44;;;;;;;;;;;;;;;24.58;32.34;101617.84;4957924;29;852;-41
2021/09/08 03:43:09;;;;;;;;;;;;;;;24.55;32.29;101622.66;4957176;29;804;-40
2021/09/08 03:45:34;;;;;;;;;;;;;;;24.33;32.75;101622.81;4956855;29;958;-40
2021/09/08 03:48:00;;;;;;;;;;;;;;;24.32;32.79;101626.47;4957031;29;847;-39
2021/09/08 03:50:25;;;;;;;;;;;;;;;24.02;33.11;101622.09;4957635;29;855;-42
2021/09/08 03:52:50;;;;;;;;;;;;;;;23.88;33.48;101623.31;4957180;29;1907;-41
2021/09/08 03:55:16;;;;;;;;;;;;;;;23.85;33.56;101624.47;4957238;29;820;-45
2021/09/08 03:57:41;;;;;;;;;;;;;;;23.28;34.07;101628.53;4959870;28;824;-40
2021/09/08 04:00:07;;;;;;;;;;;;;;;22.65;36.19;101621.44;4960296;29;949;-42
2021/09/08 04:02:32;;;;;;;;;;;;;;;23.63;35.26;101621.03;4960439;29;762;-42
2021/09/08 04:04:58;;;;;;;;;;;;;;;24.08;34.57;101622.38;4960649;29;792;-43
2021/09/08 04:07:24;;;;;;;;;;;;;;;24.33;34.83;101621.97;4960414;28;846;-44
2021/09/08 04:09:50;;;;;;;;;;;;;;;24.60;35.05;101617.69;4960464;29;742;-45
2021/09/08 04:12:15;;;;;;;;;;;;;;;24.76;35.62;101617.06;4960458;29;797;-49
2021/09/08 04:14:40;;;;;;;;;;;;;;;24.80;35.26;101623.00;4959974;29;1914;-37
2021/09/08 04:17:05;;;;;;;;;;;;;;;24.97;34.58;101625.97;4960109;29;1264;-43
2021/09/08 04:19:31;;;;;;;;;;;;;;;25.00;34.75;101621.16;4960247;29;1324;-40
2021/09/08 04:21:56;;;;;;;;;;;;;;;25.15;34.88;101617.97;4959619;29;1507;-38
2021/09/08 04:24:22;;;;;;;;;;;;;;;25.14;34.96;101621.66;4960125;29;1205;-42
2021/09/08 04:26:47;;;;;;;;;;;;;;;25.29;34.69;101624.72;4960115;29;733;-41
2021/09/08 04:29:14;;;;;;;;;;;;;;;25.41;34.77;101625.34;4959938;29;1009;-44
2021/09/08 04:31:39;;;;;;;;;;;;;;;25.61;34.84;101630.63;4959680;28;781;-44
2021/09/08 04:34:06;;;;;;;;;;;;;;;25.56;35.03;101622.97;4960271;29;1914;-52
2021/09/08 04:36:32;;;;;;;;;;;;;;;25.52;35.32;101624.31;4960198;29;809;-45
2021/09/08 04:38:57;;;;;;;;;;;;;;;25.43;35.55;101620.66;4959966;29;817;-44
2021/09/08 04:41:23;;;;;;;;;;;;;;;25.61;35.66;101619.88;4960018;29;749;-43
2021/09/08 04:43:48;;;;;;;;;;;;;;;25.66;36.04;101623.81;4959701;29;1136;-44
2021/09/08 04:46:13;;;;;;;;;;;;;;;25.74;35.57;101633.81;4959425;29;871;-48
2021/09/08 04:48:38;;;;;;;;;;;;;;;25.80;35.81;101637.75;4960205;29;757;-45
2021/09/08 04:51:04;;;;;;;;;;;;;;;25.88;35.76;101631.59;4960035;29;776;-49
2021/09/08 04:53:29;;;;;;;;;;;;;;;25.88;35.67;101643.25;4959609;28;1902;-43
2021/09/08 04:55:54;;;;;;;;;;;;;;;26.04;35.29;101647.94;4959963;29;793;-43
2021/09/08 04:58:19;;;;;;;;;;;;;;;25.98;35.34;101643.16;4942757;29;962;-40
2021/09/08 05:00:45;;;;;;;;;;;;;;;26.08;35.06;101643.09;4958973;29;883;-43
2021/09/08 05:03:10;;;;;;;;;;;;;;;26.13;35.39;101639.94;4959536;28;768;-43
2021/09/08 05:05:35;;;;;;;;;;;;;;;26.12;35.38;101640.94;4959645;29;844;-42
2021/09/08 05:08:01;;;;;;;;;;;;;;;26.18;35.48;101643.00;4958226;28;766;-41
2021/09/08 05:10:26;;;;;;;;;;;;;;;26.32;35.14;101638.94;4958461;28;1000;-44
2021/09/08 05:12:51;;;;;;;;;;;;;;;26.32;34.95;101641.63;4959053;29;1906;-43
2021/09/08 05:15:17;;;;;;;;;;;;;;;26.26;35.12;101643.09;4958557;29;1111;-44
2021/09/08 05:17:42;;;;;;;;;;;;;;;26.36;34.83;101642.19;4959257;29;1290;-43
2021/09/08 05:20:08;;;;;;;;;;;;;;;26.34;35.07;101641.50;4959320;29;813;-43
2021/09/08 05:22:33;;;;;;;;;;;;;;;26.40;35.35;101635.47;4941356;29;1798;-42
2021/09/08 05:24:59;;;;;;;;;;;;;;;26.48;34.88;101648.16;4958836;29;844;-43
2021/09/08 05:27:24;;;;;;;;;;;;;;;26.48;34.63;101646.31;4959450;29;820;-44
2021/09/08 05:29:49;;;;;;;;;;;;;;;26.48;34.55;101643.63;4957877;29;985;-41
2021/09/08 05:32:15;;;;;;;;;;;;;;;26.63;34.31;101648.44;4959331;29;827;-42
2021/09/08 05:34:40;;;;;;;;;;;;;;;26.69;34.64;101645.13;4958779;29;1972;-43
2021/09/08 05:37:05;;;;;;;;;;;;;;;26.56;35.09;101652.81;4958331;29;1236;-47
2021/09/08 05:39:31;;;;;;;;;;;;;;;26.61;34.83;101647.78;4958527;29;1115;-41
2021/09/08 05:41:56;;;;;;;;;;;;;;;26.68;35.05;101651.53;4958064;29;1095;-41
2021/09/08 05:44:21;;;;;;;;;;;;;;;26.69;34.87;101653.22;4957700;29;1229;-43
2021/09/08 05:46:46;;;;;;;;;;;;;;;26.72;34.83;101655.63;4958439;29;1141;-43
2021/09/08 05:49:12;;;;;;;;;;;;;;;26.76;34.90;101648.88;4958473;29;1260;-45
2021/09/08 05:51:39;;;;;;;;;;;;;;;26.74;34.81;101640.09;4958173;29;1240;-44
2021/09/08 05:54:04;;;;;;;;;;;;;;;26.71;35.09;101642.28;4958601;29;1902;-41
2021/09/08 05:56:29;;;;;;;;;;;;;;;26.68;35.07;101643.44;4958472;29;1177;-45
2021/09/08 05:58:55;;;;;;;;;;;;;;;26.75;34.78;101641.78;4957787;29;1194;-43
2021/09/08 06:01:20;;;;;;;;;;;;;;;26.84;34.80;101653.47;4958107;29;1189;-41
2021/09/08 06:03:45;;;;;;;;;;;;;;;26.85;35.07;101646.22;4956760;29;1210;-42
2021/09/08 06:06:11;;;;;;;;;;;;;;;26.86;34.51;101643.38;4958089;29;1221;-46
2021/09/08 06:08:36;;;;;;;;;;;;;;;26.99;34.57;101648.31;4957587;29;1264;-43
2021/09/08 06:11:01;;;;;;;;;;;;;;;26.98;34.94;101651.19;4957667;29;1209;-42
2021/09/08 06:13:26;;;;;;;;;;;;;;;26.80;35.18;101646.72;4957606;29;1969;-42
2021/09/08 06:15:52;;;;;;;;;;;;;;;26.92;34.98;101643.75;4957134;29;1229;-43
2021/09/08 06:18:17;;;;;;;;;;;;;;;26.92;35.43;101641.91;4958160;29;1142;-47
2021/09/08 06:20:42;;;;;;;;;;;;;;;27.05;34.93;101646.88;4957875;28;1597;-44
2021/09/08 06:23:09;;;;;;;;;;;;;;;27.20;35.36;101657.06;4958315;29;816;-49
2021/09/08 06:25:35;;;;;;;;;;;;;;;27.08;35.69;101651.97;4957787;29;805;-44
2021/09/08 06:28:00;;;;;;;;;;;;;;;27.08;35.88;101651.09;4958116;29;828;-43
2021/09/08 06:30:25;;;;;;;;;;;;;;;26.99;36.20;101652.91;4957193;29;990;-43
2021/09/08 06:32:51;;;;;;;;;;;;;;;27.00;36.02;101657.28;4958111;29;1910;-44
2021/09/08 06:35:16;;;;;;;;;;;;;;;27.16;35.93;101653.84;4957849;29;752;-44
2021/09/08 06:37:43;;;;;;;;;;;;;;;27.29;35.33;101657.97;4958014;29;820;-46
2021/09/08 06:40:08;;;;;;;;;;;;;;;27.32;35.87;101657.63;4957809;28;852;-44
2021/09/08 06:42:34;;;;;;;;;;;;;;;27.10;35.10;101655.34;4957771;29;825;-44
2021/09/08 06:44:59;;;;;;;;;;;;;;;27.19;36.25;101656.25;4957160;29;1013;-46
2021/09/08 06:47:24;;;;;;;;;;;;;;;27.30;36.86;101652.41;4957734;28;785;-41
2021/09/08 06:49:50;;;;;;;;;;;;;;;27.36;36.34;101659.84;4957854;29;901;-45
2021/09/08 06:52:15;;;;;;;;;;;;;;;27.50;36.00;101657.53;4957759;29;733;-44
2021/09/08 06:54:41;;;;;;;;;;;;;;;27.56;35.96;101656.88;4957753;29;1911;-43
2021/09/08 06:57:06;;;;;;;;;;;;;;;27.65;36.19;101646.94;4957459;29;753;-41
2021/09/08 06:59:31;;;;;;;;;;;;;;;27.66;36.35;101653.22;4957176;29;1013;-45
2021/09/08 07:01:58;;;;;;;;;;;;;;;27.62;36.62;101652.69;4957901;29;820;-46
2021/09/08 07:04:24;;;;;;;;;;;;;;;27.72;37.27;101655.28;4957806;29;832;-44
2021/09/08 07:06:49;;;;;;;;;;;;;;;27.72;37.89;101656.13;4957327;29;784;-45
2021/09/08 07:09:14;;;;;;;;;;;;;;;27.80;37.58;101658.00;4957586;29;677;-45
2021/09/08 07:11:40;;;;;;;;;;;;;;;27.80;37.71;101651.72;4957848;28;737;-45
2021/09/08 07:14:05;;;;;;;;;;;;;;;27.70;37.98;101647.34;4956860;28;1902;-43
2021/09/08 07:16:30;;;;;;;;;;;;;;;27.77;38.04;101643.97;4957650;29;769;-44
2021/09/08 07:18:55;;;;;;;;;;;;;;;27.84;38.60;101647.69;4957656;29;1319;-44
2021/09/08 07:21:21;;;;;;;;;;;;;;;27.85;38.30;101660.19;4957269;28;1637;-48
2021/09/08 07:23:46;;;;;;;;;;;;;;;27.93;37.86;101652.09;4957435;29;1181;-42
2021/09/08 07:26:11;;;;;;;;;;;;;;;27.89;37.95;101658.88;4955807;29;1284;-46
2021/09/08 07:28:37;;;;;;;;;;;;;;;27.86;37.85;101661.91;4956889;29;1221;-49
2021/09/08 07:31:02;;;;;;;;;;;;;;;27.85;38.12;101668.31;4956697;28;1413;-46
2021/09/08 07:33:27;;;;;;;;;;;;;;;27.79;38.49;101666.28;4960651;29;1918;-46
2021/09/08 07:35:53;;;;;;;;;;;;;;;27.83;38.63;101667.63;4960782;29;769;-46
2021/09/08 07:38:18;;;;;;;;;;;;;;;27.97;38.37;101668.84;4961059;29;757;-46
2021/09/08 07:40:44;;;;;;;;;;;;;;;28.01;38.39;101670.19;4961276;29;824;-46
2021/09/08 07:43:09;;;;;;;;;;;;;;;28.04;38.28;101664.47;4960954;29;792;-46
2021/09/08 07:45:34;;;;;;;;;;;;;;;28.13;37.66;101667.19;4960440;29;946;-45
2021/09/08 07:48:00;;;;;;;;;;;;;;;28.13;37.63;101667.19;4960922;29;761;-45
2021/09/08 07:50:25;;;;;;;;;;;;;;;28.26;37.78;101666.69;4960805;29;1053;-43
2021/09/08 07:52:50;;;;;;;;;;;;;;;28.26;38.21;101669.38;4960833;29;1968;-47
2021/09/08 07:55:15;;;;;;;;;;;;;;;28.26;38.17;101677.50;4960941;29;836;-42
2021/09/08 07:57:41;;;;;;;;;;;;;;;28.35;37.91;101673.81;4960264;29;867;-42
2021/09/08 08:00:07;;;;;;;;;;;;;;;28.38;37.42;101673.47;4959865;29;948;-41
2021/09/08 08:02:41;;;;;;;;;;;;;;;28.40;37.42;101668.75;4943313;29;1242;-42
2021/09/08 08:05:06;;;;;;;;;;;;;;;28.02;37.55;101674.59;4960303;29;757;-43
2021/09/08 08:07:32;;;;;;;;;;;;;;;28.28;38.34;101675.47;4960115;29;1103;-42
2021/09/08 08:09:57;;;;;;;;;;;;;;;28.28;38.28;101672.78;4960673;29;776;-42
2021/09/08 08:12:22;;;;;;;;;;;;;;;28.27;38.85;101673.78;4960384;29;764;-45
2021/09/08 08:14:48;;;;;;;;;;;;;;;28.35;38.36;101674.66;4959878;29;1906;-43
2021/09/08 08:17:13;;;;;;;;;;;;;;;28.39;38.43;101680.59;4960369;29;1093;-46
2021/09/08 08:19:38;;;;;;;;;;;;;;;28.50;38.03;101679.38;4960219;29;780;-43
2021/09/08 08:22:04;;;;;;;;;;;;;;;28.10;36.37;101671.91;4960513;29;1609;-44
2021/09/08 08:24:29;;;;;;;;;;;;;;;28.08;36.70;101676.63;4960370;28;733;-45
2021/09/08 08:26:54;;;;;;;;;;;;;;;28.24;38.12;101659.56;4959853;29;740;-44
2021/09/08 08:29:20;;;;;;;;;;;;;;;28.16;38.16;101674.97;4959805;29;1008;-45
2021/09/08 08:31:45;;;;;;;;;;;;;;;28.19;39.05;101666.50;4960528;29;824;-45
2021/09/08 08:34:11;;;;;;;;;;;;;;;28.28;38.86;101664.66;4958693;29;1973;-46
2021/09/08 08:36:37;;;;;;;;;;;;;;;28.26;38.71;101674.81;4959736;29;809;-45
2021/09/08 08:39:02;;;;;;;;;;;;;;;28.27;38.66;101673.78;4959911;29;817;-45
2021/09/08 08:41:28;;;;;;;;;;;;;;;28.37;37.80;101666.38;4959966;29;828;-44
2021/09/08 08:43:53;;;;;;;;;;;;;;;28.43;38.21;101659.41;4941649;29;1081;-44
2021/09/08 08:46:18;;;;;;;;;;;;;;;28.32;38.22;101664.16;4959399;28;807;-45
2021/09/08 08:48:43;;;;;;;;;;;;;;;28.38;37.32;101668.06;4959408;29;1157;-47
2021/09/08 08:51:09;;;;;;;;;;;;;;;28.38;36.41;101673.47;4959436;29;840;-45
2021/09/08 08:53:34;;;;;;;;;;;;;;;28.29;35.40;101659.06;4959585;29;1965;-47
2021/09/08 08:55:59;;;;;;;;;;;;;;;28.32;37.33;101666.84;4959760;29;797;-46
2021/09/08 08:58:25;;;;;;;;;;;;;;;28.26;37.71;101662.09;4958967;29;950;-45
2021/09/08 09:01:13;;;;;;;;;;;;;;;28.31;37.63;101664.31;4959354;29;841;-45
2021/09/08 09:03:39;;;;;;;;;;;;;;;28.14;35.27;101652.63;4954284;28;1755;-44
2021/09/08 09:06:04;;;;;;;;;;;;;;;27.77;37.66;101655.63;4959431;29;797;-38
2021/09/08 09:08:35;;;;;;;;;;;;;;;27.41;36.07;101656.66;4959091;28;862;-38
2021/09/08 09:11:00;;;;;;;;;;;;;;;27.33;35.00;101660.19;4959584;29;816;-39
2021/09/08 09:13:32;;;;;;;;;;;;;;;27.30;35.12;101656.94;4958875;29;1902;-38
2021/09/08 09:16:05;;;;;;;;;;;;;;;27.32;35.76;101660.34;4959151;29;789;-40
2021/09/08 09:18:36;;;;;;;;;;;;;;;27.02;37.90;101655.31;4959305;29;1074;-39
2021/09/08 09:21:06;;;;;;;;;;;;;;;27.08;37.50;101659.22;4958742;29;1653;-39
2021/09/08 09:23:40;;;;;;;;;;;;;;;27.30;35.20;101662.34;4941959;29;742;-38
2021/09/08 09:26:05;;;;;;;;;;;;;;;27.19;35.35;101656.25;4959275;29;761;-39
2021/09/08 09:28:30;;;;;;;;;;;;;;;27.16;35.03;101655.72;4958337;29;950;-39
2021/09/08 09:30:56;;;;;;;;;;;;;;;27.36;33.97;101648.22;4958921;29;803;-38
2021/09/08 09:33:28;;;;;;;;;;;;;;;27.33;35.71;101651.22;4959372;29;1977;-39
2021/09/08 09:35:53;;;;;;;;;;;;;;;27.26;35.72;101641.06;4958769;29;840;-38
2021/09/08 09:38:19;;;;;;;;;;;;;;;27.47;35.24;101649.75;4958743;29;776;-40
2021/09/08 09:40:44;;;;;;;;;;;;;;;27.37;36.08;101641.78;4941986;29;820;-38
2021/09/08 09:43:12;;;;;;;;;;;;;;;27.52;35.64;101639.31;4958488;29;840;-39
2021/09/08 09:45:38;;;;;;;;;;;;;;;27.73;35.26;101633.47;4958136;28;998;-41
2021/09/08 09:48:04;;;;;;;;;;;;;;;28.02;34.51;101627.78;4958760;29;933;-38
2021/09/08 09:50:29;;;;;;;;;;;;;;;27.70;35.04;101625.72;4958467;29;817;-40
2021/09/08 09:52:55;;;;;;;;;;;;;;;27.82;33.84;101622.69;4958718;29;1942;-38
2021/09/08 09:55:21;;;;;;;;;;;;;;;27.87;34.21;101634.69;4958011;28;773;-40
2021/09/08 09:57:46;;;;;;;;;;;;;;;27.93;34.16;101624.19;4957351;29;1138;-38
2021/09/08 10:00:12;;;;;;;;;;;;;;;27.63;33.92;101622.78;4957867;29;1146;-37
2021/09/08 10:02:38;;;;;;;;;;;;;;;27.80;33.88;101624.69;4958221;29;1181;-39
2021/09/08 10:05:03;;;;;;;;;;;;;;;27.92;33.75;101620.69;4957694;29;1248;-40
2021/09/08 10:07:29;;;;;;;;;;;;;;;28.07;33.71;101618.16;4958320;29;1157;-38
2021/09/08 10:10:01;;;;;;;;;;;;;;;27.96;34.49;101626.59;4957623;29;1039;-40
2021/09/08 10:12:46;;;;;;;;;;;;;;;28.26;33.16;101629.63;4958144;29;805;-39
2021/09/08 10:15:12;;;;;;;;;;;;;;;28.15;33.49;101628.13;4958158;29;1971;-39
2021/09/08 10:17:41;;;;;;;;;;;;;;;27.85;33.50;101604.28;4958048;29;1294;-39
2021/09/08 10:20:07;;;;;;;;;;;;;;;27.78;34.07;101616.75;4958278;29;773;-42
2021/09/08 10:22:35;;;;;;;;;;;;;;;28.18;33.44;101608.00;4958186;29;1589;-38
2021/09/08 10:25:06;;;;;;;;;;;;;;;28.34;33.04;101607.19;4940899;29;805;-39
2021/09/08 10:27:32;;;;;;;;;;;;;;;28.42;32.65;101609.88;4958263;29;933;-40
2021/09/08 10:29:57;;;;;;;;;;;;;;;28.46;32.46;101610.41;4957822;29;1001;-40
2021/09/08 10:32:22;;;;;;;;;;;;;;;28.47;32.33;101599.41;4941263;29;869;-39
2021/09/08 10:34:48;;;;;;;;;;;;;;;28.40;32.58;101608.34;4957565;29;1911;-41
2021/09/08 10:37:13;;;;;;;;;;;;;;;28.44;32.29;101609.72;4958055;28;795;-39
2021/09/08 10:39:39;;;;;;;;;;;;;;;28.64;31.83;101602.06;4940336;29;1072;-40
2021/09/08 10:42:05;;;;;;;;;;;;;;;28.24;31.23;101599.22;4957643;29;1190;-43
2021/09/08 10:44:39;;;;;;;;;;;;;;;28.09;34.05;101599.06;4957569;29;1005;-42
2021/09/08 10:47:04;;;;;;;;;;;;;;;27.93;33.64;101592.63;4957748;29;860;-40
2021/09/08 10:49:39;;;;;;;;;;;;;;;28.60;33.16;101592.59;4957444;29;745;-36
2021/09/08 10:52:04;;;;;;;;;;;;;;;28.30;32.27;101598.53;4958096;29;773;-38
2021/09/08 10:54:30;;;;;;;;;;;;;;;28.83;32.91;101584.56;4957862;29;1972;-38
2021/09/08 10:56:55;;;;;;;;;;;;;;;28.59;31.95;101589.03;4958006;29;796;-40
2021/09/08 10:59:21;;;;;;;;;;;;;;;28.67;32.51;101590.88;4957159;29;914;-39
2021/09/08 11:01:46;;;;;;;;;;;;;;;28.22;32.79;101588.56;4957650;29;814;-40
2021/09/08 11:04:12;;;;;;;;;;;;;;;28.66;33.55;101591.06;4957696;29;745;-40
2021/09/08 11:06:39;;;;;;;;;;;;;;;28.54;32.21;101596.00;4960331;28;731;-40
2021/09/08 11:09:05;;;;;;;;;;;;;;;28.80;33.87;101589.47;4962013;28;752;-40
2021/09/08 11:11:30;;;;;;;;;;;;;;;28.77;33.91;101589.84;4961578;29;777;-39
2021/09/08 11:13:56;;;;;;;;;;;;;;;28.84;34.02;101588.13;4960910;29;1974;-39
2021/09/08 11:16:28;;;;;;;;;;;;;;;28.77;32.68;101589.84;4961706;29;804;-41
2021/09/08 11:18:54;;;;;;;;;;;;;;;28.88;33.72;101592.16;4961041;29;1306;-42
2021/09/08 11:21:23;;;;;;;;;;;;;;;28.69;33.38;101588.00;4960953;29;1593;-40
2021/09/08 11:23:55;;;;;;;;;;;;;;;28.81;32.79;101594.72;4961459;29;815;-40
2021/09/08 11:26:20;;;;;;;;;;;;;;;28.57;32.24;101577.53;4960820;29;908;-41
2021/09/08 11:28:45;;;;;;;;;;;;;;;28.06;35.38;101585.88;4961086;29;1024;-42
2021/09/08 11:31:12;;;;;;;;;;;;;;;28.83;33.42;101578.28;4961272;29;824;-38
2021/09/08 11:33:37;;;;;;;;;;;;;;;28.92;33.16;101571.84;4960821;29;1910;-41
2021/09/08 11:36:09;;;;;;;;;;;;;;;28.62;32.30;101584.28;4961510;28;848;-38
2021/09/08 11:38:34;;;;;;;;;;;;;;;28.67;32.31;101574.66;4961375;29;824;-39
2021/09/08 11:41:01;;;;;;;;;;;;;;;28.84;32.88;101577.31;4960370;29;1066;-41
2021/09/08 11:43:30;;;;;;;;;;;;;;;28.90;34.09;101571.19;4960718;29;993;-40
2021/09/08 11:45:55;;;;;;;;;;;;;;;29.01;33.15;101569.16;4960888;28;842;-40
2021/09/08 11:48:27;;;;;;;;;;;;;;;29.08;33.98;101579.09;4943065;29;922;-40
2021/09/08 11:51:00;;;;;;;;;;;;;;;28.46;33.63;101570.63;4961268;29;741;-39
2021/09/08 11:53:25;;;;;;;;;;;;;;;29.06;33.83;101564.88;4960566;29;1902;-39
2021/09/08 11:55:50;;;;;;;;;;;;;;;28.96;33.48;101562.34;4959273;29;1338;-38
2021/09/08 11:58:16;;;;;;;;;;;;;;;28.48;34.01;101563.19;4960970;29;817;-38
2021/09/08 12:01:10;;;;;;;;;;;;;;;28.68;34.26;101554.66;4960527;29;868;-40
2021/09/08 12:03:40;;;;;;;;;;;;;;;28.43;34.01;101552.03;4951478;29;1185;-39
2021/09/08 12:06:24;;;;;;;;;;;;;;;28.85;34.14;101560.03;4960835;29;748;-41
2021/09/08 12:08:53;;;;;;;;;;;;;;;28.56;33.64;101558.78;4960669;29;804;-40
2021/09/08 12:11:48;;;;;;;;;;;;;;;28.62;35.37;101555.38;4960415;29;761;-40
2021/09/08 12:14:20;;;;;;;;;;;;;;;27.78;36.23;101549.16;4951623;29;1907;-39
2021/09/08 12:16:46;;;;;;;;;;;;;;;28.14;35.97;101552.56;4960038;28;1309;-41
2021/09/08 12:19:18;;;;;;;;;;;;;;;28.47;34.18;101553.38;4959933;29;812;-41
2021/09/08 12:21:43;;;;;;;;;;;;;;;27.82;33.75;101550.53;4959944;29;1598;-41
2021/09/08 12:24:21;;;;;;;;;;;;;;;27.70;33.47;101549.16;4960285;29;844;-44
2021/09/08 12:26:47;;;;;;;;;;;;;;;28.06;34.44;101550.72;4960400;29;848;-47
2021/09/08 12:29:12;;;;;;;;;;;;;;;28.40;35.34;101546.09;4959864;29;954;-40
2021/09/08 12:31:48;;;;;;;;;;;;;;;28.44;35.28;101542.06;4959630;29;749;-42
2021/09/08 12:34:13;;;;;;;;;;;;;;;28.06;33.69;101538.00;4960645;29;1964;-42
2021/09/08 12:36:38;;;;;;;;;;;;;;;28.05;33.94;101554.41;4960038;29;856;-40
2021/09/08 12:39:15;;;;;;;;;;;;;;;28.11;33.96;101541.06;4959987;29;836;-40
2021/09/08 12:41:50;;;;;;;;;;;;;;;28.48;35.39;101537.97;4959829;29;765;-42
2021/09/08 12:44:15;;;;;;;;;;;;;;;28.92;34.10;101543.91;4959551;29;919;-43
2021/09/08 12:46:46;;;;;;;;;;;;;;;29.04;34.83;101545.25;4942268;29;1503;-42
2021/09/08 12:49:18;;;;;;;;;;;;;;;29.19;33.75;101531.81;4960015;29;812;-41